createdAt,value
2023-05-25T00:01:59.612Z,9.40
2023-05-25T00:04:30.633Z,9.40
2023-05-25T00:06:59.316Z,9.50
2023-05-25T00:09:27.949Z,9.40
2023-05-25T00:11:56.491Z,9.50
2023-05-25T00:14:25.925Z,9.50
2023-05-25T00:16:55.734Z,9.40
2023-05-25T00:19:25.032Z,9.40
2023-05-25T00:21:54.761Z,9.40
2023-05-25T00:24:23.297Z,9.30
2023-05-25T00:26:52.051Z,9.30
2023-05-25T00:29:21.013Z,9.30
2023-05-25T00:31:51.202Z,9.40
2023-05-25T00:34:19.575Z,9.40
2023-05-25T00:36:48.472Z,9.40
2023-05-25T00:39:19.556Z,9.40
2023-05-25T00:41:49.427Z,9.40
2023-05-25T00:44:22.162Z,9.30
2023-05-25T00:46:53.540Z,9.30
2023-05-25T00:49:23.251Z,9.30
2023-05-25T00:51:54.239Z,9.30
2023-05-25T00:54:24.650Z,9.30
2023-05-25T00:56:54.799Z,9.40
2023-05-25T00:59:35.881Z,9.30
2023-05-25T01:02:07.391Z,9.40
2023-05-25T01:04:39.722Z,9.30
2023-05-25T01:07:13.522Z,9.30
2023-05-25T01:09:45.790Z,9.20
2023-05-25T01:12:16.450Z,9.20
2023-05-25T01:14:48.280Z,9.20
2023-05-25T01:17:17.053Z,9.10
2023-05-25T01:20:01.484Z,9.10
2023-05-25T01:22:44.567Z,9.10
2023-05-25T01:25:16.368Z,9.10
2023-05-25T01:27:52.015Z,9.10
2023-05-25T01:30:22.329Z,9.10
2023-05-25T01:32:52.251Z,9.10
2023-05-25T01:35:21.896Z,9.00
2023-05-25T01:37:53.026Z,9.00
2023-05-25T01:40:23.500Z,8.90
2023-05-25T01:42:51.556Z,8.90
2023-05-25T01:45:20.443Z,8.90
2023-05-25T01:48:00.283Z,8.90
2023-05-25T01:50:36.998Z,8.90
2023-05-25T01:53:14.141Z,8.90
2023-05-25T01:55:49.144Z,8.80
2023-05-25T01:58:22.057Z,8.80
2023-05-25T02:00:52.593Z,8.80
2023-05-25T02:03:21.320Z,8.70
2023-05-25T02:05:51.435Z,8.70
2023-05-25T02:08:21.691Z,8.70
2023-05-25T02:10:50.613Z,8.70
2023-05-25T02:13:25.216Z,8.60
2023-05-25T02:15:54.230Z,8.60
2023-05-25T02:18:22.645Z,8.50
2023-05-25T02:20:52.208Z,8.40
2023-05-25T02:23:22.406Z,8.50
2023-05-25T02:25:54.830Z,8.50
2023-05-25T02:28:25.333Z,8.40
2023-05-25T02:30:53.552Z,8.50
2023-05-25T02:33:21.930Z,8.40
2023-05-25T02:35:56.206Z,8.30
2023-05-25T02:38:26.561Z,8.30
2023-05-25T02:40:55.506Z,8.20
2023-05-25T02:43:23.998Z,8.20
2023-05-25T02:45:52.347Z,8.10
2023-05-25T02:48:21.657Z,8.00
2023-05-25T02:50:50.488Z,8.10
2023-05-25T02:53:21.222Z,8.20
2023-05-25T02:55:51.432Z,8.20
2023-05-25T02:58:19.689Z,8.20
2023-05-25T03:00:48.029Z,8.30
2023-05-25T03:03:16.706Z,8.30
2023-05-25T03:05:45.401Z,8.30
2023-05-25T03:08:14.263Z,8.30
2023-05-25T03:10:42.746Z,8.30
2023-05-25T03:13:12.636Z,8.20
2023-05-25T03:15:43.478Z,8.20
2023-05-25T03:18:11.971Z,8.10
2023-05-25T03:20:41.836Z,8.20
2023-05-25T03:23:11.004Z,8.20
2023-05-25T03:25:39.466Z,8.10
2023-05-25T03:28:07.993Z,8.00
2023-05-25T03:30:38.319Z,8.00
2023-05-25T03:33:07.052Z,8.10
2023-05-25T03:35:36.892Z,8.20
2023-05-25T03:38:13.805Z,8.20
2023-05-25T03:40:42.039Z,8.30
2023-05-25T03:43:11.480Z,8.30
2023-05-25T03:45:48.035Z,8.30
2023-05-25T03:48:19.386Z,8.30
2023-05-25T03:50:47.716Z,8.40
2023-05-25T03:53:16.965Z,8.50
2023-05-25T03:55:45.584Z,8.40
2023-05-25T03:58:16.762Z,8.40
2023-05-25T04:00:49.437Z,8.40
2023-05-25T04:03:18.264Z,8.40
2023-05-25T04:05:48.922Z,8.40
2023-05-25T04:08:19.076Z,8.40
2023-05-25T04:10:48.926Z,8.50
2023-05-25T04:13:19.220Z,8.60
2023-05-25T04:15:49.581Z,8.60
2023-05-25T04:18:18.204Z,8.70
2023-05-25T04:20:47.426Z,8.80
2023-05-25T04:23:17.033Z,8.70
2023-05-25T04:25:46.579Z,8.70
2023-05-25T04:28:15.163Z,8.80
2023-05-25T04:30:43.888Z,9.00
2023-05-25T04:33:18.047Z,9.00
2023-05-25T04:35:47.320Z,9.20
2023-05-25T04:38:17.705Z,9.20
2023-05-25T04:40:47.654Z,9.30
2023-05-25T04:43:18.289Z,9.30
2023-05-25T04:45:52.766Z,9.30
2023-05-25T04:48:24.588Z,9.30
2023-05-25T04:50:53.989Z,9.40
2023-05-25T04:53:22.664Z,9.40
2023-05-25T04:55:51.848Z,9.50
2023-05-25T04:58:20.280Z,9.60
2023-05-25T05:00:52.509Z,9.70
2023-05-25T05:03:22.489Z,9.80
2023-05-25T05:05:50.642Z,9.80
2023-05-25T05:08:19.140Z,9.90
2023-05-25T05:17:29.978Z,10.10
2023-05-25T05:20:08.151Z,10.20
2023-05-25T05:22:36.841Z,10.30
2023-05-25T05:25:05.680Z,10.40
2023-05-25T05:27:34.280Z,10.50
2023-05-25T05:30:02.754Z,10.60
2023-05-25T05:32:37.429Z,10.70
2023-05-25T05:35:09.182Z,10.80
2023-05-25T05:37:39.543Z,10.90
2023-05-25T05:40:11.131Z,11.00
2023-05-25T05:42:42.632Z,11.00
2023-05-25T05:45:11.523Z,11.20
2023-05-25T05:47:39.659Z,11.20
2023-05-25T05:50:19.805Z,11.30
2023-05-25T05:52:48.561Z,11.40
2023-05-25T05:55:20.263Z,11.40
2023-05-25T05:57:48.954Z,11.60
2023-05-25T06:00:20.818Z,11.60
2023-05-25T06:02:49.325Z,11.80
2023-05-25T06:05:20.088Z,11.90
2023-05-25T06:07:48.664Z,12.00
2023-05-25T06:10:17.145Z,12.20
2023-05-25T06:12:59.540Z,12.20
2023-05-25T06:15:44.238Z,12.30
2023-05-25T06:18:12.798Z,12.20
2023-05-25T06:20:45.740Z,12.30
2023-05-25T06:23:16.724Z,12.20
2023-05-25T06:25:47.508Z,12.20
2023-05-25T06:28:17.091Z,12.20
2023-05-25T06:30:45.441Z,12.40
2023-05-25T06:33:14.374Z,12.50
2023-05-25T06:35:47.978Z,12.50
2023-05-25T06:38:17.648Z,12.50
2023-05-25T06:40:46.608Z,12.50
2023-05-25T06:43:14.895Z,12.50
2023-05-25T06:45:47.564Z,12.60
2023-05-25T06:48:16.654Z,12.50
2023-05-25T06:50:51.409Z,12.70
2023-05-25T06:53:21.149Z,12.70
2023-05-25T06:55:50.914Z,12.70
2023-05-25T06:58:19.354Z,12.90
2023-05-25T07:00:48.051Z,13.10
2023-05-25T07:03:16.963Z,13.10
2023-05-25T07:05:45.888Z,13.10
2023-05-25T07:08:16.611Z,13.10
2023-05-25T07:10:46.216Z,13.20
2023-05-25T07:13:15.648Z,13.30
2023-05-25T07:15:47.943Z,13.40
2023-05-25T07:18:18.169Z,13.40
2023-05-25T07:20:48.603Z,13.70
2023-05-25T07:23:18.646Z,13.70
2023-05-25T07:25:47.475Z,13.80
2023-05-25T07:28:15.894Z,13.80
2023-05-25T07:30:43.922Z,13.80
2023-05-25T07:33:12.029Z,14.00
2023-05-25T07:35:40.356Z,14.00
2023-05-25T07:38:08.530Z,14.20
2023-05-25T07:40:38.127Z,14.30
2023-05-25T07:43:08.271Z,14.10
2023-05-25T07:45:36.943Z,14.20
2023-05-25T07:48:07.406Z,14.20
2023-05-25T07:50:35.720Z,14.30
2023-05-25T07:53:03.999Z,14.50
2023-05-25T07:55:32.161Z,14.50
2023-05-25T07:58:02.002Z,14.70
2023-05-25T08:00:30.529Z,14.80
2023-05-25T08:02:59.148Z,14.70
2023-05-25T08:05:27.368Z,14.80
2023-05-25T08:07:56.102Z,14.70
2023-05-25T08:10:26.747Z,14.90
2023-05-25T08:12:56.187Z,15.10
2023-05-25T08:15:28.000Z,15.40
2023-05-25T08:17:56.594Z,15.30
2023-05-25T08:20:26.273Z,15.50
2023-05-25T08:22:54.543Z,15.50
2023-05-25T08:25:23.514Z,15.50
2023-05-25T08:27:51.651Z,15.40
2023-05-25T08:30:19.594Z,15.40
2023-05-25T08:32:49.256Z,15.30
2023-05-25T08:35:17.471Z,15.60
2023-05-25T08:37:45.902Z,15.50
2023-05-25T08:40:16.428Z,15.60
2023-05-25T08:42:45.636Z,15.70
2023-05-25T08:45:26.325Z,15.80
2023-05-25T08:48:01.057Z,15.90
2023-05-25T08:50:31.824Z,15.90
2023-05-25T08:53:05.182Z,16.00
2023-05-25T08:55:37.375Z,16.00
2023-05-25T08:58:15.598Z,16.20
2023-05-25T09:00:49.912Z,16.20
2023-05-25T09:03:19.771Z,16.10
2023-05-25T09:05:48.359Z,16.50
2023-05-25T09:08:18.079Z,16.50
2023-05-25T09:10:46.354Z,16.50
2023-05-25T09:13:21.789Z,16.40
2023-05-25T09:15:52.236Z,16.50
2023-05-25T09:18:21.967Z,16.40
2023-05-25T09:20:50.191Z,16.50
2023-05-25T09:23:18.956Z,16.50
2023-05-25T09:25:50.575Z,16.60
2023-05-25T09:30:52.287Z,16.80
2023-05-25T09:33:22.083Z,17.00
2023-05-25T09:35:53.034Z,17.20
2023-05-25T09:38:22.373Z,17.50
2023-05-25T09:40:52.517Z,17.50
2023-05-25T09:43:39.178Z,17.30
2023-05-25T09:46:08.565Z,17.10
2023-05-25T09:48:41.980Z,17.30
2023-05-25T09:51:11.071Z,17.30
2023-05-25T09:53:39.059Z,17.00
2023-05-25T09:56:07.542Z,17.40
2023-05-25T09:58:35.560Z,17.30
2023-05-25T10:01:04.649Z,17.30
2023-05-25T10:03:33.204Z,17.30
2023-05-25T10:06:04.087Z,17.50
2023-05-25T10:08:33.525Z,17.60
2023-05-25T10:11:02.488Z,17.60
2023-05-25T10:13:33.541Z,17.30
2023-05-25T10:16:03.361Z,17.50
2023-05-25T10:18:34.871Z,17.50
2023-05-25T10:21:05.812Z,17.50
2023-05-25T10:23:41.490Z,17.70
2023-05-25T10:26:10.057Z,17.70
2023-05-25T10:28:40.624Z,18.00
2023-05-25T10:31:11.307Z,17.70
2023-05-25T10:33:43.036Z,17.80
2023-05-25T10:36:14.460Z,18.00
2023-05-25T10:38:44.707Z,18.00
2023-05-25T10:41:13.114Z,18.30
2023-05-25T10:43:42.029Z,18.30
2023-05-25T10:46:12.663Z,18.10
2023-05-25T10:48:41.596Z,18.40
2023-05-25T10:51:11.781Z,18.40
2023-05-25T10:53:44.917Z,18.40
2023-05-25T10:56:14.512Z,18.20
2023-05-25T10:58:43.861Z,18.40
2023-05-25T11:01:12.912Z,18.80
2023-05-25T11:03:55.406Z,18.70
2023-05-25T11:06:24.747Z,18.90
2023-05-25T11:08:56.726Z,18.90
2023-05-25T11:12:03.791Z,19.10
2023-05-25T11:14:33.544Z,19.40
2023-05-25T11:17:10.671Z,19.50
2023-05-25T11:19:45.005Z,19.60
2023-05-25T11:22:17.930Z,19.80
2023-05-25T11:24:47.869Z,19.60
2023-05-25T11:27:15.968Z,19.50
2023-05-25T11:29:44.317Z,19.50
2023-05-25T11:32:16.196Z,19.70
2023-05-25T11:34:46.563Z,19.90
2023-05-25T11:37:21.242Z,20.20
2023-05-25T11:39:51.557Z,20.00
2023-05-25T11:42:23.709Z,19.70
2023-05-25T11:44:54.067Z,19.90
2023-05-25T11:47:25.267Z,19.70
2023-05-25T11:49:56.634Z,20.00
2023-05-25T11:52:25.030Z,20.10
2023-05-25T11:54:54.469Z,20.60
2023-05-25T11:57:25.161Z,20.40
2023-05-25T11:59:54.280Z,20.60
2023-05-25T12:02:23.070Z,21.00
2023-05-25T12:04:55.427Z,21.00
2023-05-25T12:07:23.859Z,20.50
2023-05-25T12:09:51.866Z,20.90
2023-05-25T12:12:21.292Z,21.20
2023-05-25T12:14:50.123Z,21.50
2023-05-25T12:17:19.286Z,21.80
2023-05-25T12:19:47.720Z,21.60
2023-05-25T12:22:16.289Z,21.40
2023-05-25T12:24:44.381Z,21.50
2023-05-25T12:27:20.393Z,21.90
2023-05-25T12:29:48.957Z,22.30
2023-05-25T12:32:17.399Z,21.60
2023-05-25T12:34:45.988Z,21.60
2023-05-25T12:37:21.121Z,21.90
2023-05-25T12:39:50.651Z,21.70
2023-05-25T12:42:20.329Z,21.40
2023-05-25T12:44:48.372Z,21.90
2023-05-25T12:47:19.766Z,21.80
2023-05-25T12:49:51.361Z,22.60
2023-05-25T12:52:36.713Z,22.80
2023-05-25T12:55:27.029Z,23.30
2023-05-25T12:57:58.115Z,23.80
2023-05-25T13:00:28.289Z,22.70
2023-05-25T13:02:56.563Z,22.30
2023-05-25T13:05:26.490Z,22.10
2023-05-25T13:08:10.626Z,22.80
2023-05-25T13:10:39.178Z,22.60
2023-05-25T13:13:12.734Z,22.40
2023-05-25T13:18:07.349Z,23.30
2023-05-25T13:20:36.793Z,23.70
2023-05-25T13:23:06.014Z,23.40
2023-05-25T13:25:33.939Z,23.70
2023-05-25T13:28:02.254Z,23.80
2023-05-25T13:30:31.703Z,23.30
2023-05-25T13:33:00.240Z,23.10
2023-05-25T13:35:41.804Z,22.90
2023-05-25T13:38:10.904Z,23.00
2023-05-25T13:40:38.889Z,23.20
2023-05-25T13:43:07.187Z,22.70
2023-05-25T13:45:36.660Z,23.20
2023-05-25T13:48:04.900Z,23.40
2023-05-25T13:50:32.978Z,23.90
2023-05-25T13:53:00.935Z,23.80
2023-05-25T13:55:28.838Z,23.80
2023-05-25T13:57:56.954Z,23.70
2023-05-25T14:00:25.258Z,23.90
2023-05-25T14:02:54.623Z,24.00
2023-05-25T14:05:22.800Z,24.00
2023-05-25T14:07:51.092Z,24.20
2023-05-25T14:10:19.724Z,24.30
2023-05-25T14:12:47.658Z,23.90
2023-05-25T14:15:15.603Z,24.00
2023-05-25T14:17:43.660Z,23.90
2023-05-25T14:20:16.198Z,24.50
2023-05-25T14:22:44.246Z,24.00
2023-05-25T14:25:12.726Z,24.10
2023-05-25T14:27:41.275Z,23.70
2023-05-25T14:30:10.388Z,24.30
2023-05-25T14:32:38.672Z,24.30
2023-05-25T14:35:07.632Z,24.10
2023-05-25T14:37:37.042Z,24.60
2023-05-25T14:40:06.072Z,24.20
2023-05-25T14:42:34.091Z,24.60
2023-05-25T14:45:02.103Z,23.80
2023-05-25T14:47:30.102Z,23.70
2023-05-25T14:49:58.091Z,23.70
2023-05-25T14:52:26.166Z,23.40
2023-05-25T14:54:55.567Z,23.30
2023-05-25T14:57:23.542Z,23.60
2023-05-25T14:59:51.517Z,23.60
2023-05-25T15:02:19.734Z,24.50
2023-05-25T15:04:48.572Z,24.60
2023-05-25T15:07:16.710Z,23.90
2023-05-25T15:09:45.291Z,23.10
2023-05-25T15:12:14.747Z,23.40
2023-05-25T15:14:43.112Z,23.40
2023-05-25T15:17:11.497Z,23.40
2023-05-25T15:19:39.476Z,23.30
2023-05-25T15:22:07.740Z,22.90
2023-05-25T15:24:35.825Z,23.00
2023-05-25T15:27:05.093Z,23.20
2023-05-25T15:29:34.470Z,23.40
2023-05-25T15:32:03.275Z,23.60
2023-05-25T15:34:31.431Z,23.90
2023-05-25T15:37:00.277Z,24.10
2023-05-25T15:39:28.262Z,23.70
2023-05-25T15:41:56.310Z,23.50
2023-05-25T15:44:24.268Z,23.70
2023-05-25T15:46:53.807Z,23.40
2023-05-25T15:49:21.745Z,23.40
2023-05-25T15:51:50.147Z,23.60
2023-05-25T15:54:18.207Z,23.70
2023-05-25T15:56:46.135Z,24.10
2023-05-25T15:59:14.456Z,23.90
2023-05-25T16:01:42.503Z,23.90
2023-05-25T16:04:11.912Z,24.30
2023-05-25T16:06:39.966Z,24.40
2023-05-25T16:09:08.245Z,24.30
2023-05-25T16:11:36.308Z,24.80
2023-05-25T16:14:04.289Z,24.20
2023-05-25T16:16:32.370Z,24.50
2023-05-25T16:19:00.560Z,24.00
2023-05-25T16:21:29.932Z,23.80
2023-05-25T16:23:57.901Z,24.20
2023-05-25T16:26:26.979Z,24.70
2023-05-25T16:28:55.030Z,24.60
2023-05-25T16:31:23.034Z,24.00
2023-05-25T16:33:51.122Z,24.40
2023-05-25T16:36:19.066Z,24.00
2023-05-25T16:38:48.326Z,24.10
2023-05-25T16:41:16.376Z,23.90
2023-05-25T16:43:44.390Z,23.60
2023-05-25T16:46:12.759Z,23.80
2023-05-25T16:48:40.794Z,24.50
2023-05-25T16:51:14.845Z,25.60
2023-05-25T16:53:43.569Z,25.20
2023-05-25T16:56:13.149Z,25.50
2023-05-25T16:58:41.062Z,25.90
2023-05-25T17:01:09.064Z,25.90
2023-05-25T17:03:37.245Z,26.30
2023-05-25T17:06:05.495Z,26.60
2023-05-25T17:08:33.596Z,26.70
2023-05-25T17:11:01.497Z,27.30
2023-05-25T17:13:30.912Z,26.90
2023-05-25T17:15:59.348Z,26.40
2023-05-25T17:18:28.389Z,26.60
2023-05-25T17:20:57.810Z,26.50
2023-05-25T17:23:25.854Z,26.60
2023-05-25T17:25:53.810Z,26.40
2023-05-25T17:28:21.821Z,25.80
2023-05-25T17:30:51.481Z,27.10
2023-05-25T17:33:19.565Z,27.30
2023-05-25T17:35:47.647Z,27.60
2023-05-25T17:38:15.926Z,26.50
2023-05-25T17:40:43.999Z,25.80
2023-05-25T17:43:12.010Z,26.60
2023-05-25T17:45:39.955Z,27.10
2023-05-25T17:48:09.697Z,26.00
2023-05-25T17:50:37.910Z,25.90
2023-05-25T17:53:05.869Z,23.60
2023-05-25T17:55:33.859Z,22.10
2023-05-25T17:58:01.820Z,21.50
2023-05-25T18:00:30.765Z,21.30
2023-05-25T18:02:59.014Z,20.90
2023-05-25T18:05:28.432Z,20.70
2023-05-25T18:07:56.441Z,20.40
2023-05-25T18:10:24.403Z,20.30
2023-05-25T18:12:52.826Z,20.30
2023-05-25T18:15:21.708Z,20.10
2023-05-25T18:17:49.746Z,20.10
2023-05-25T18:20:17.927Z,20.00
2023-05-25T18:22:47.505Z,20.00
2023-05-25T18:25:15.443Z,19.80
2023-05-25T18:27:43.397Z,19.90
2023-05-25T18:30:12.270Z,19.90
2023-05-25T18:32:40.250Z,19.50
2023-05-25T18:35:09.301Z,19.30
2023-05-25T18:37:37.316Z,19.30
2023-05-25T18:40:08.290Z,19.50
2023-05-25T18:42:36.397Z,19.50
2023-05-25T18:45:04.629Z,19.20
2023-05-25T18:47:33.047Z,19.10
2023-05-25T18:50:01.102Z,19.00
2023-05-25T18:52:29.145Z,18.80
2023-05-25T18:54:58.339Z,18.70
2023-05-25T18:57:28.815Z,18.60
2023-05-25T18:59:56.851Z,18.40
2023-05-25T19:02:25.333Z,18.50
2023-05-25T19:04:53.439Z,18.30
2023-05-25T19:07:21.688Z,18.20
2023-05-25T19:10:07.529Z,18.00
2023-05-25T19:12:39.895Z,18.00
2023-05-25T19:15:09.453Z,17.80
2023-05-25T19:17:38.677Z,17.60
2023-05-25T19:20:08.400Z,17.60
2023-05-25T19:22:36.390Z,17.80
2023-05-25T19:25:04.811Z,17.60
2023-05-25T19:27:32.773Z,17.40
2023-05-25T19:30:02.364Z,17.20
2023-05-25T19:32:30.803Z,17.00
2023-05-25T19:34:58.907Z,17.10
2023-05-25T19:37:29.769Z,17.00
2023-05-25T19:39:58.259Z,16.90
2023-05-25T19:42:26.478Z,17.10
2023-05-25T19:44:54.471Z,17.20
2023-05-25T19:47:27.146Z,17.20
2023-05-25T19:49:55.129Z,17.10
2023-05-25T19:52:26.240Z,16.90
2023-05-25T19:54:54.332Z,16.70
2023-05-25T19:57:22.460Z,16.70
2023-05-25T19:59:51.110Z,16.60
2023-05-25T20:02:19.147Z,16.40
2023-05-25T20:04:48.716Z,16.30
2023-05-25T20:07:17.885Z,16.00
2023-05-25T20:09:46.426Z,15.90
2023-05-25T20:12:16.226Z,15.80
2023-05-25T20:14:45.394Z,15.60
2023-05-25T20:17:13.519Z,15.50
2023-05-25T20:19:41.521Z,15.60
2023-05-25T20:22:10.864Z,15.50
2023-05-25T20:24:38.821Z,15.50
2023-05-25T20:27:06.985Z,15.50
2023-05-25T20:29:35.046Z,15.30
2023-05-25T20:32:03.228Z,15.20
2023-05-25T20:34:31.412Z,15.20
2023-05-25T20:36:59.325Z,15.20
2023-05-25T20:39:29.028Z,15.20
2023-05-25T20:42:09.678Z,15.30
2023-05-25T20:44:38.292Z,15.20
2023-05-25T20:47:06.468Z,15.00
2023-05-25T20:49:34.431Z,14.90
2023-05-25T20:52:02.635Z,15.00
2023-05-25T20:54:44.814Z,14.90
2023-05-25T20:57:12.951Z,14.80
2023-05-25T20:59:41.052Z,14.90
2023-05-25T21:02:09.401Z,14.70
2023-05-25T21:04:41.628Z,14.70
2023-05-25T21:07:09.736Z,14.60
2023-05-25T21:09:39.070Z,14.50
2023-05-25T21:12:07.670Z,14.60
2023-05-25T21:14:35.714Z,14.50
2023-05-25T21:17:06.361Z,14.50
2023-05-25T21:19:34.325Z,14.50
2023-05-25T21:22:02.267Z,14.50
2023-05-25T21:24:30.413Z,14.50
2023-05-25T21:26:59.716Z,14.40
2023-05-25T21:29:27.734Z,14.30
2023-05-25T21:31:55.767Z,14.30
2023-05-25T21:34:23.807Z,14.20
2023-05-25T21:36:52.028Z,14.20
2023-05-25T21:39:20.342Z,14.10
2023-05-25T21:41:48.326Z,14.10
2023-05-25T21:44:17.734Z,14.10
2023-05-25T21:46:45.644Z,14.20
2023-05-25T21:49:13.627Z,14.10
2023-05-25T21:51:41.623Z,14.10
2023-05-25T21:54:09.623Z,14.00
2023-05-25T21:56:37.536Z,14.00
2023-05-25T21:59:05.546Z,14.00
2023-05-25T22:01:35.020Z,13.80
2023-05-25T22:04:03.104Z,13.80
2023-05-25T22:06:31.058Z,13.80
2023-05-25T22:08:59.056Z,13.60
2023-05-25T22:11:27.078Z,13.60
2023-05-25T22:13:55.064Z,13.50
2023-05-25T22:16:23.278Z,13.70
2023-05-25T22:18:52.622Z,13.50
2023-05-25T22:21:20.624Z,13.50
2023-05-25T22:23:48.592Z,13.50
2023-05-25T22:26:16.510Z,13.50
2023-05-25T22:28:44.506Z,13.40
2023-05-25T22:31:12.734Z,13.50
2023-05-25T22:33:40.733Z,13.40
2023-05-25T22:36:10.166Z,13.30
2023-05-25T22:38:38.198Z,13.40
2023-05-25T22:41:06.148Z,13.30
2023-05-25T22:43:34.073Z,13.30
2023-05-25T22:46:02.072Z,13.10
2023-05-25T22:48:30.080Z,13.20
2023-05-25T22:50:58.274Z,13.20
2023-05-25T22:53:27.598Z,13.10
2023-05-25T22:55:55.610Z,13.00
2023-05-25T22:58:23.547Z,13.10
2023-05-25T23:00:51.674Z,13.00
2023-05-25T23:03:19.726Z,13.00
2023-05-25T23:05:47.923Z,13.10
2023-05-25T23:08:15.988Z,13.10
2023-05-25T23:10:45.426Z,13.10
2023-05-25T23:13:14.790Z,12.90
2023-05-25T23:15:44.800Z,12.80
2023-05-25T23:18:13.030Z,12.80
2023-05-25T23:20:41.041Z,12.80
2023-05-25T23:23:09.157Z,12.80
2023-05-25T23:25:37.579Z,12.80
2023-05-25T23:28:06.833Z,12.70
2023-05-25T23:30:34.740Z,12.70
2023-05-25T23:33:02.728Z,12.70
2023-05-25T23:35:30.791Z,12.50
2023-05-25T23:38:01.566Z,12.50
2023-05-25T23:40:29.808Z,12.30
2023-05-25T23:42:57.891Z,12.30
2023-05-25T23:45:27.199Z,12.20
2023-05-25T23:47:55.185Z,12.30
2023-05-25T23:50:23.151Z,12.40
2023-05-25T23:52:51.088Z,12.40
2023-05-25T23:55:19.249Z,12.30
2023-05-25T23:57:47.385Z,12.30
